Brentford, South Dakota
Current Conditions -  °F | °C
As of 9:53 AM on Saturday 20 Dec 2014 (Local Time) from KABR Reporting Station
Moderate Fog Moderate Fog  
Wind Chill: 16°   Ceiling: 200
Heat Index: 26°   Visibility: 0.25mi
Dew Point: 24°   Wind: 10mph
Humidity: 92%   Direction: 170°S
Pressure: 30.01"   Gusts: NA
Location:  45.16°N, 98.32°W
Report Text: KABR 201553Z AUTO 17009KT 1/4SM FZFG VV002 M03/M04 A3001 RMK AO2 SLP180 I1002 T10331044
Loading
Personal Weather Stations






























Interactive Weather Map New forecast layout! Learn more

10-Day Weather Forecast

Advertisements
Track Severe Weather on mobile